createdAt,value
2018-03-17T00:00:20.248Z,941.58
2018-03-17T00:01:20.238Z,941.6
2018-03-17T00:02:20.206Z,941.71
2018-03-17T00:03:20.186Z,941.65
2018-03-17T00:04:20.168Z,941.63
2018-03-17T00:05:20.146Z,941.65
2018-03-17T00:06:20.127Z,941.66
2018-03-17T00:07:20.106Z,941.63
2018-03-17T00:08:20.086Z,941.64
2018-03-17T00:09:20.070Z,941.6
2018-03-17T00:10:20.046Z,941.59
2018-03-17T00:11:20.028Z,941.62
2018-03-17T00:12:20.009Z,941.65
2018-03-17T00:13:19.988Z,941.64
2018-03-17T00:14:19.970Z,941.66
2018-03-17T00:15:19.949Z,941.66
2018-03-17T00:16:19.933Z,941.69
2018-03-17T00:17:19.909Z,941.66
2018-03-17T00:18:19.888Z,941.68
2018-03-17T00:19:19.871Z,941.7
2018-03-17T00:20:19.864Z,941.67
2018-03-17T00:21:19.830Z,941.62
2018-03-17T00:22:19.817Z,941.65
2018-03-17T00:23:19.789Z,941.62
2018-03-17T00:24:19.772Z,941.57
2018-03-17T00:25:19.749Z,941.55
2018-03-17T00:26:19.732Z,941.59
2018-03-17T00:27:19.714Z,941.58
2018-03-17T00:28:19.693Z,941.57
2018-03-17T00:29:19.672Z,941.6
2018-03-17T00:30:19.649Z,941.59
2018-03-17T00:31:19.631Z,941.56
2018-03-17T00:32:19.612Z,941.6
2018-03-17T00:33:19.591Z,941.61
2018-03-17T00:34:19.571Z,941.62
2018-03-17T00:35:19.550Z,941.66
2018-03-17T00:36:19.532Z,941.6
2018-03-17T00:37:19.521Z,941.67
2018-03-17T00:38:19.491Z,941.61
2018-03-17T00:39:19.476Z,941.64
2018-03-17T00:40:19.454Z,941.65
2018-03-17T00:41:19.433Z,941.68
2018-03-17T00:42:19.412Z,941.6
2018-03-17T00:43:19.392Z,941.66
2018-03-17T00:44:19.373Z,941.66
2018-03-17T00:45:19.352Z,941.66
2018-03-17T00:46:19.331Z,941.72
2018-03-17T00:47:19.313Z,941.72
2018-03-17T00:48:19.294Z,941.72
2018-03-17T00:49:19.272Z,941.68
2018-03-17T00:50:19.253Z,941.72
2018-03-17T00:51:19.233Z,941.74
2018-03-17T00:52:19.245Z,941.69
2018-03-17T00:53:19.192Z,941.67
2018-03-17T00:54:19.175Z,941.68
2018-03-17T00:55:19.153Z,941.69
2018-03-17T00:56:19.134Z,941.71
2018-03-17T00:57:19.118Z,941.7
2018-03-17T00:58:19.096Z,941.71
2018-03-17T00:59:19.073Z,941.7
2018-03-17T01:00:19.059Z,941.73
2018-03-17T01:01:19.034Z,941.73
2018-03-17T01:02:19.015Z,941.78
2018-03-17T01:03:18.996Z,941.73
2018-03-17T01:04:18.973Z,941.77
2018-03-17T01:05:18.956Z,941.78
2018-03-17T01:06:18.938Z,941.76
2018-03-17T01:07:18.917Z,941.83
2018-03-17T01:08:18.898Z,941.83
2018-03-17T01:09:18.877Z,941.76
2018-03-17T01:10:18.855Z,941.83
2018-03-17T01:11:18.835Z,941.82
2018-03-17T01:12:18.825Z,941.81
2018-03-17T01:13:18.797Z,941.81
2018-03-17T01:14:18.775Z,941.8
2018-03-17T01:15:18.756Z,941.83
2018-03-17T01:16:18.736Z,941.79
2018-03-17T01:17:18.717Z,941.82
2018-03-17T01:18:18.715Z,941.82
2018-03-17T01:19:18.680Z,941.79
2018-03-17T01:20:18.662Z,941.77
2018-03-17T01:21:18.636Z,941.73
2018-03-17T01:22:18.613Z,941.74
2018-03-17T01:23:18.596Z,941.74
2018-03-17T01:24:18.577Z,941.77
2018-03-17T01:25:18.555Z,941.77
2018-03-17T01:26:18.535Z,941.75
2018-03-17T01:27:18.515Z,941.78
2018-03-17T01:28:18.495Z,941.75
2018-03-17T01:29:18.475Z,941.74
2018-03-17T01:30:18.456Z,941.73
2018-03-17T01:31:18.436Z,941.7
2018-03-17T01:32:18.416Z,941.74
2018-03-17T01:33:18.393Z,941.78
2018-03-17T01:34:18.374Z,941.77
2018-03-17T01:35:18.356Z,941.79
2018-03-17T01:36:18.335Z,941.8
2018-03-17T01:37:18.319Z,941.83
2018-03-17T01:38:18.295Z,941.78
2018-03-17T01:39:18.275Z,941.8
2018-03-17T01:40:18.277Z,941.76
2018-03-17T01:41:18.232Z,941.75
2018-03-17T01:42:18.215Z,941.74
2018-03-17T01:43:18.194Z,941.72
2018-03-17T01:44:18.175Z,941.69
2018-03-17T01:45:18.155Z,941.7
2018-03-17T01:46:18.134Z,941.74
2018-03-17T01:47:18.114Z,941.73
2018-03-17T01:48:18.094Z,941.68
2018-03-17T01:49:18.074Z,941.7
2018-03-17T01:50:18.055Z,941.71
2018-03-17T01:51:18.034Z,941.75
2018-03-17T01:52:18.014Z,941.71
2018-03-17T01:53:17.994Z,941.65
2018-03-17T01:54:17.976Z,941.64
2018-03-17T01:55:17.955Z,941.67
2018-03-17T01:56:17.936Z,941.59
2018-03-17T01:57:17.914Z,941.63
2018-03-17T01:58:17.894Z,941.65
2018-03-17T01:59:17.874Z,941.62
2018-03-17T02:00:17.855Z,941.55
2018-03-17T02:01:17.835Z,941.58
2018-03-17T02:02:17.814Z,941.54
2018-03-17T02:03:17.794Z,941.54
2018-03-17T02:04:17.774Z,941.58
2018-03-17T02:05:17.759Z,941.58
2018-03-17T02:06:17.736Z,941.51
2018-03-17T02:07:17.712Z,941.54
2018-03-17T02:08:17.693Z,941.54
2018-03-17T02:09:17.675Z,941.54
2018-03-17T02:10:17.654Z,941.55
2018-03-17T02:11:17.632Z,941.48
2018-03-17T02:12:17.614Z,941.44
2018-03-17T02:13:17.591Z,941.51
2018-03-17T02:14:17.573Z,941.5
2018-03-17T02:15:17.552Z,941.54
2018-03-17T02:16:17.532Z,941.47
2018-03-17T02:17:17.512Z,941.5
2018-03-17T02:18:17.492Z,941.48
2018-03-17T02:19:17.472Z,941.44
2018-03-17T02:20:17.451Z,941.4
2018-03-17T02:21:17.479Z,941.42
2018-03-17T02:22:17.478Z,941.4
2018-03-17T02:23:17.392Z,941.4
2018-03-17T02:24:17.370Z,941.4
2018-03-17T02:25:17.351Z,941.34
2018-03-17T02:26:17.329Z,941.35
2018-03-17T02:27:17.311Z,941.35
2018-03-17T02:28:17.290Z,941.4
2018-03-17T02:29:17.269Z,941.35
2018-03-17T02:30:17.250Z,941.36
2018-03-17T02:31:17.246Z,941.35
2018-03-17T02:32:17.209Z,941.4
2018-03-17T02:33:17.188Z,941.43
2018-03-17T02:34:17.169Z,941.41
2018-03-17T02:35:17.148Z,941.4
2018-03-17T02:36:17.129Z,941.45
2018-03-17T02:37:17.106Z,941.4
2018-03-17T02:38:17.088Z,941.44
2018-03-17T02:39:17.069Z,941.46
2018-03-17T02:40:17.048Z,941.48
2018-03-17T02:41:17.027Z,941.5
2018-03-17T02:42:17.009Z,941.51
2018-03-17T02:43:16.994Z,941.48
2018-03-17T02:44:16.966Z,941.49
2018-03-17T02:45:16.947Z,941.41
2018-03-17T02:46:16.927Z,941.38
2018-03-17T02:47:16.906Z,941.37
2018-03-17T02:48:16.886Z,941.35
2018-03-17T02:49:16.865Z,941.36
2018-03-17T02:50:17.064Z,941.37
2018-03-17T02:51:16.823Z,941.35
2018-03-17T02:52:16.807Z,941.38
2018-03-17T02:53:16.783Z,941.37
2018-03-17T02:54:16.765Z,941.34
2018-03-17T02:55:16.744Z,941.35
2018-03-17T02:56:16.723Z,941.38
2018-03-17T02:57:16.702Z,941.37
2018-03-17T02:58:16.681Z,941.4
2018-03-17T02:59:16.661Z,941.37
2018-03-17T03:00:16.642Z,941.42
2018-03-17T03:01:16.620Z,941.39
2018-03-17T03:02:16.601Z,941.35
2018-03-17T03:03:16.620Z,941.36
2018-03-17T03:04:16.568Z,941.37
2018-03-17T03:05:16.541Z,941.39
2018-03-17T03:06:16.520Z,941.34
2018-03-17T03:07:16.499Z,941.4
2018-03-17T03:08:16.483Z,941.36
2018-03-17T03:09:16.458Z,941.38
2018-03-17T03:10:16.438Z,941.37
2018-03-17T03:11:16.417Z,941.37
2018-03-17T03:12:16.397Z,941.33
2018-03-17T03:13:16.377Z,941.31
2018-03-17T03:14:16.428Z,941.3
2018-03-17T03:15:16.336Z,941.31
2018-03-17T03:16:16.388Z,941.33
2018-03-17T03:17:16.305Z,941.39
2018-03-17T03:18:16.276Z,941.32
2018-03-17T03:19:16.255Z,941.35
2018-03-17T03:20:16.239Z,941.39
2018-03-17T03:21:16.216Z,941.37
2018-03-17T03:22:16.206Z,941.43
2018-03-17T03:23:16.279Z,941.43
2018-03-17T03:24:16.153Z,941.4
2018-03-17T03:25:16.134Z,941.42
2018-03-17T03:26:16.112Z,941.41
2018-03-17T03:27:16.092Z,941.38
2018-03-17T03:28:16.084Z,941.47
2018-03-17T03:29:16.052Z,941.44
2018-03-17T03:30:16.034Z,941.47
2018-03-17T03:31:16.015Z,941.49
2018-03-17T03:32:15.990Z,941.47
2018-03-17T03:33:15.969Z,941.5
2018-03-17T03:34:15.949Z,941.47
2018-03-17T03:35:15.931Z,941.46
2018-03-17T03:36:15.912Z,941.4
2018-03-17T03:37:15.890Z,941.37
2018-03-17T03:38:15.868Z,941.37
2018-03-17T03:39:15.853Z,941.38
2018-03-17T03:40:15.828Z,941.39
2018-03-17T03:41:15.806Z,941.37
2018-03-17T03:42:15.787Z,941.36
2018-03-17T03:43:15.768Z,941.35
2018-03-17T03:44:15.745Z,941.36
2018-03-17T03:45:15.725Z,941.39
2018-03-17T03:46:15.704Z,941.38
2018-03-17T03:47:15.685Z,941.4
2018-03-17T03:48:15.683Z,941.35
2018-03-17T03:49:15.643Z,941.36
2018-03-17T03:50:15.624Z,941.36
2018-03-17T03:51:15.603Z,941.34
2018-03-17T03:52:15.582Z,941.3
2018-03-17T03:53:15.562Z,941.28
2018-03-17T03:54:15.541Z,941.27
2018-03-17T03:55:15.520Z,941.33
2018-03-17T03:56:15.498Z,941.31
2018-03-17T03:57:15.479Z,941.34
2018-03-17T03:58:15.462Z,941.29
2018-03-17T03:59:15.442Z,941.29
2018-03-17T04:00:15.418Z,941.28
2018-03-17T04:01:15.402Z,941.24
2018-03-17T04:02:15.377Z,941.32
2018-03-17T04:03:15.356Z,941.27
2018-03-17T04:04:15.334Z,941.25
2018-03-17T04:05:15.315Z,941.28
2018-03-17T04:06:15.293Z,941.27
2018-03-17T04:07:15.275Z,941.24
2018-03-17T04:08:15.253Z,941.25
2018-03-17T04:09:15.232Z,941.29
2018-03-17T04:10:15.212Z,941.23
2018-03-17T04:11:15.191Z,941.32
2018-03-17T04:12:15.171Z,941.31
2018-03-17T04:13:15.150Z,941.29
2018-03-17T04:14:15.130Z,941.33
2018-03-17T04:15:15.114Z,941.3
2018-03-17T04:16:15.088Z,941.33
2018-03-17T04:17:15.066Z,941.32
2018-03-17T04:18:15.046Z,941.38
2018-03-17T04:19:15.027Z,941.25
2018-03-17T04:20:15.006Z,941.28
2018-03-17T04:21:14.984Z,941.31
2018-03-17T04:22:14.964Z,941.32
2018-03-17T04:23:14.944Z,941.35
2018-03-17T04:24:14.924Z,941.39
2018-03-17T04:25:14.902Z,941.41
2018-03-17T04:26:14.881Z,941.4
2018-03-17T04:27:14.867Z,941.41
2018-03-17T04:28:14.841Z,941.41
2018-03-17T04:29:14.821Z,941.42
2018-03-17T04:30:14.799Z,941.45
2018-03-17T04:31:14.779Z,941.52
2018-03-17T04:32:14.757Z,941.53
2018-03-17T04:33:14.739Z,941.44
2018-03-17T04:34:14.716Z,941.53
2018-03-17T04:35:14.697Z,941.48
2018-03-17T04:36:14.676Z,941.52
2018-03-17T04:37:14.654Z,941.49
2018-03-17T04:38:14.635Z,941.51
2018-03-17T04:39:14.612Z,941.53
2018-03-17T04:40:14.592Z,941.51
2018-03-17T04:41:14.572Z,941.52
2018-03-17T04:42:14.552Z,941.52
2018-03-17T04:43:14.529Z,941.51
2018-03-17T04:44:14.510Z,941.56
2018-03-17T04:45:14.489Z,941.56
2018-03-17T04:46:14.469Z,941.52
2018-03-17T04:47:14.446Z,941.52
2018-03-17T04:48:14.427Z,941.5
2018-03-17T04:49:14.416Z,941.52
2018-03-17T04:50:14.384Z,941.53
2018-03-17T04:51:14.366Z,941.48
2018-03-17T04:52:14.344Z,941.47
2018-03-17T04:53:14.323Z,941.49
2018-03-17T04:54:14.303Z,941.47
2018-03-17T04:55:14.281Z,941.47
2018-03-17T04:56:14.262Z,941.5
2018-03-17T04:57:14.241Z,941.44
2018-03-17T04:58:14.221Z,941.46
2018-03-17T04:59:14.200Z,941.38
2018-03-17T05:00:14.180Z,941.37
2018-03-17T05:01:14.159Z,941.38
2018-03-17T05:02:14.137Z,941.41
2018-03-17T05:03:14.119Z,941.32
2018-03-17T05:04:14.098Z,941.38
2018-03-17T05:05:14.076Z,941.39
2018-03-17T05:06:14.054Z,941.41
2018-03-17T05:07:14.033Z,941.42
2018-03-17T05:08:14.015Z,941.39
2018-03-17T05:09:13.994Z,941.4
2018-03-17T05:10:13.972Z,941.48
2018-03-17T05:11:13.951Z,941.45
2018-03-17T05:12:13.932Z,941.42
2018-03-17T05:13:13.910Z,941.43
2018-03-17T05:14:13.889Z,941.48
2018-03-17T05:15:13.869Z,941.49
2018-03-17T05:16:13.849Z,941.54
2018-03-17T05:17:13.828Z,941.5
2018-03-17T05:18:13.805Z,941.54
2018-03-17T05:19:13.785Z,941.51
2018-03-17T05:20:13.764Z,941.55
2018-03-17T05:21:13.744Z,941.52
2018-03-17T05:22:13.723Z,941.53
2018-03-17T05:23:13.704Z,941.5
2018-03-17T05:24:13.681Z,941.5
2018-03-17T05:25:13.663Z,941.47
2018-03-17T05:26:13.641Z,941.51
2018-03-17T05:27:13.620Z,941.49
2018-03-17T05:28:13.599Z,941.52
2018-03-17T05:29:13.580Z,941.48
2018-03-17T05:30:13.557Z,941.5
2018-03-17T05:31:13.541Z,941.51
2018-03-17T05:32:13.516Z,941.49
2018-03-17T05:33:13.494Z,941.52
2018-03-17T05:34:13.481Z,941.44
2018-03-17T05:35:13.453Z,941.48
2018-03-17T05:36:13.435Z,941.48
2018-03-17T05:37:13.414Z,941.43
2018-03-17T05:38:13.390Z,941.44
2018-03-17T05:39:13.371Z,941.37
2018-03-17T05:40:13.349Z,941.36
2018-03-17T05:41:13.330Z,941.37
2018-03-17T05:42:13.306Z,941.41
2018-03-17T05:43:13.287Z,941.42
2018-03-17T05:44:13.266Z,941.44
2018-03-17T05:45:13.246Z,941.44
2018-03-17T05:46:13.227Z,941.44
2018-03-17T05:47:13.202Z,941.4
2018-03-17T05:48:13.188Z,941.41
2018-03-17T05:49:13.164Z,941.39
2018-03-17T05:50:13.142Z,941.4
2018-03-17T05:51:13.124Z,941.38
2018-03-17T05:52:13.144Z,941.39
2018-03-17T05:53:13.086Z,941.38
2018-03-17T05:54:13.069Z,941.39
2018-03-17T05:55:13.037Z,941.36
2018-03-17T05:56:13.016Z,941.43
2018-03-17T05:57:12.997Z,941.45
2018-03-17T05:58:12.979Z,941.45
2018-03-17T05:59:12.955Z,941.51
2018-03-17T06:00:12.933Z,941.49
2018-03-17T06:01:12.912Z,941.51
2018-03-17T06:02:12.890Z,941.49
2018-03-17T06:03:12.871Z,941.57
2018-03-17T06:04:12.849Z,941.53
2018-03-17T06:05:12.829Z,941.57
2018-03-17T06:06:12.815Z,941.53
2018-03-17T06:07:12.785Z,941.54
2018-03-17T06:08:12.766Z,941.53
2018-03-17T06:09:12.744Z,941.55
2018-03-17T06:10:12.724Z,941.57
2018-03-17T06:11:12.705Z,941.6
2018-03-17T06:12:12.683Z,941.61
2018-03-17T06:13:12.663Z,941.62
2018-03-17T06:14:12.641Z,941.74
2018-03-17T06:15:12.621Z,941.71
2018-03-17T06:16:12.600Z,941.66
2018-03-17T06:17:12.578Z,941.7
2018-03-17T06:18:12.559Z,941.72
2018-03-17T06:19:12.540Z,941.71
2018-03-17T06:20:12.517Z,941.71
2018-03-17T06:21:12.496Z,941.73
2018-03-17T06:22:12.474Z,941.71
2018-03-17T06:23:12.455Z,941.68
2018-03-17T06:24:12.432Z,941.75
2018-03-17T06:25:12.410Z,941.76
2018-03-17T06:26:12.399Z,941.75
2018-03-17T06:27:12.371Z,941.76
2018-03-17T06:28:12.349Z,941.74
2018-03-17T06:29:12.330Z,941.76
2018-03-17T06:30:12.307Z,941.66
2018-03-17T06:31:12.290Z,941.69
2018-03-17T06:32:12.265Z,941.72
2018-03-17T06:33:12.246Z,941.7
2018-03-17T06:34:12.223Z,941.7
2018-03-17T06:35:12.204Z,941.7
2018-03-17T06:36:12.183Z,941.76
2018-03-17T06:37:12.169Z,941.67
2018-03-17T06:38:12.140Z,941.76
2018-03-17T06:39:12.119Z,941.69
2018-03-17T06:40:12.099Z,941.68
2018-03-17T06:41:12.084Z,941.71
2018-03-17T06:42:12.056Z,941.75
2018-03-17T06:43:12.034Z,941.75
2018-03-17T06:44:12.013Z,941.75
2018-03-17T06:45:12.015Z,941.77
2018-03-17T06:46:11.972Z,941.75
2018-03-17T06:47:11.950Z,941.69
2018-03-17T06:48:11.933Z,941.71
2018-03-17T06:49:11.910Z,941.64
2018-03-17T06:50:11.887Z,941.74
2018-03-17T06:51:11.866Z,941.69
2018-03-17T06:52:11.845Z,941.69
2018-03-17T06:53:11.825Z,941.74
2018-03-17T06:54:11.804Z,941.75
2018-03-17T06:55:11.834Z,941.78
2018-03-17T06:56:11.760Z,941.75
2018-03-17T06:57:11.740Z,941.76
2018-03-17T06:58:11.718Z,941.7
2018-03-17T06:59:11.699Z,941.73
2018-03-17T07:00:11.676Z,941.79
2018-03-17T07:01:11.657Z,941.81
2018-03-17T07:02:11.634Z,941.81
2018-03-17T07:03:11.615Z,941.81
2018-03-17T07:04:11.592Z,941.85
2018-03-17T07:05:11.571Z,941.89
2018-03-17T07:06:11.550Z,941.82
2018-03-17T07:07:11.528Z,941.86
2018-03-17T07:08:11.508Z,941.88
2018-03-17T07:09:11.485Z,941.89
2018-03-17T07:10:11.465Z,941.94
2018-03-17T07:11:11.444Z,941.94
2018-03-17T07:12:11.423Z,941.94
2018-03-17T07:13:11.401Z,941.91
2018-03-17T07:14:11.382Z,941.91
2018-03-17T07:15:11.360Z,941.92
2018-03-17T07:16:11.338Z,941.92
2018-03-17T07:17:11.318Z,941.91
2018-03-17T07:18:11.298Z,941.91
2018-03-17T07:19:11.330Z,941.9
2018-03-17T07:20:11.255Z,941.93
2018-03-17T07:21:11.233Z,941.9
2018-03-17T07:22:11.215Z,941.85
2018-03-17T07:23:11.199Z,941.93
2018-03-17T07:24:11.171Z,941.86
2018-03-17T07:25:11.185Z,941.94
2018-03-17T07:26:11.128Z,941.95
2018-03-17T07:27:11.107Z,942
2018-03-17T07:28:11.087Z,941.9
2018-03-17T07:29:11.065Z,941.97
2018-03-17T07:30:11.046Z,941.97
2018-03-17T07:31:11.027Z,941.99
2018-03-17T07:32:11.005Z,941.95
2018-03-17T07:33:10.985Z,941.94
2018-03-17T07:34:10.961Z,941.98
2018-03-17T07:35:10.941Z,941.95
2018-03-17T07:36:10.920Z,942.01
2018-03-17T07:37:10.899Z,942
2018-03-17T07:38:10.876Z,941.99
2018-03-17T07:39:10.857Z,942.06
2018-03-17T07:40:10.837Z,942.03
2018-03-17T07:41:10.815Z,942.05
2018-03-17T07:42:10.794Z,942.05
2018-03-17T07:43:10.774Z,942.08
2018-03-17T07:44:10.800Z,942.1
2018-03-17T07:45:10.732Z,942.06
2018-03-17T07:46:10.711Z,942.08
2018-03-17T07:47:10.691Z,942.05
2018-03-17T07:48:10.671Z,942.05
2018-03-17T07:49:10.647Z,942.02
2018-03-17T07:50:10.630Z,941.98
2018-03-17T07:51:10.608Z,942.09
2018-03-17T07:52:10.588Z,942.06
2018-03-17T07:53:10.564Z,942.06
2018-03-17T07:54:10.545Z,942.06
2018-03-17T07:55:10.524Z,942.09
2018-03-17T07:56:10.504Z,942.07
2018-03-17T07:57:10.482Z,942.08
2018-03-17T07:58:10.460Z,942.05
2018-03-17T07:59:10.442Z,942.04
2018-03-17T08:00:10.419Z,942.01
2018-03-17T08:01:10.399Z,941.94
2018-03-17T08:02:10.379Z,941.98
2018-03-17T08:03:10.356Z,941.88
2018-03-17T08:04:10.334Z,941.92
2018-03-17T08:05:10.316Z,941.87
2018-03-17T08:06:10.298Z,941.87
2018-03-17T08:07:10.280Z,941.74
2018-03-17T08:08:10.262Z,941.77
2018-03-17T08:09:10.234Z,941.84
2018-03-17T08:10:10.213Z,941.79
2018-03-17T08:11:10.190Z,941.79
2018-03-17T08:12:10.171Z,941.78
2018-03-17T08:13:10.150Z,941.77
2018-03-17T08:14:10.128Z,941.76
2018-03-17T08:15:10.108Z,941.81
2018-03-17T08:16:10.088Z,941.79
2018-03-17T08:17:10.068Z,941.85
2018-03-17T08:18:10.045Z,941.79
2018-03-17T08:19:10.024Z,941.77
2018-03-17T08:20:10.004Z,941.81
2018-03-17T08:21:09.983Z,941.78
2018-03-17T08:22:09.962Z,941.77
2018-03-17T08:23:09.941Z,941.82
2018-03-17T08:24:09.921Z,941.83
2018-03-17T08:25:09.902Z,941.8
2018-03-17T08:26:09.879Z,941.77
2018-03-17T08:27:09.858Z,941.75
2018-03-17T08:28:09.838Z,941.71
2018-03-17T08:29:09.815Z,941.75
2018-03-17T08:30:09.798Z,941.76
2018-03-17T08:31:09.775Z,941.78
2018-03-17T08:32:09.754Z,941.75
2018-03-17T08:33:09.731Z,941.75
2018-03-17T08:34:09.747Z,941.76
2018-03-17T08:35:09.691Z,941.74
2018-03-17T08:36:09.675Z,941.71
2018-03-17T08:37:09.649Z,941.72
2018-03-17T08:38:09.629Z,941.75
2018-03-17T08:39:09.607Z,941.74
2018-03-17T08:40:09.586Z,941.73
2018-03-17T08:41:09.566Z,941.76
2018-03-17T08:42:09.545Z,941.8
2018-03-17T08:43:09.525Z,941.76
2018-03-17T08:44:09.503Z,941.79
2018-03-17T08:45:09.481Z,941.77
2018-03-17T08:46:09.463Z,941.77
2018-03-17T08:47:09.441Z,941.84
2018-03-17T08:48:09.420Z,941.82
2018-03-17T08:49:09.400Z,941.82
2018-03-17T08:50:09.379Z,941.82
2018-03-17T08:51:09.358Z,941.83
2018-03-17T08:52:09.339Z,941.81
2018-03-17T08:53:09.327Z,941.84
2018-03-17T08:54:09.297Z,941.84
2018-03-17T08:55:09.276Z,941.86
2018-03-17T08:56:09.255Z,941.87
2018-03-17T08:57:09.236Z,941.86
2018-03-17T08:58:09.215Z,941.88
2018-03-17T08:59:09.194Z,941.88
2018-03-17T09:00:09.173Z,941.87
2018-03-17T09:01:09.154Z,941.88
2018-03-17T09:02:09.131Z,941.89
2018-03-17T09:03:09.111Z,941.88
2018-03-17T09:04:09.091Z,941.9
2018-03-17T09:05:09.071Z,941.89
2018-03-17T09:06:09.049Z,941.86
2018-03-17T09:07:09.034Z,941.85
2018-03-17T09:08:09.007Z,941.86
2018-03-17T09:09:08.989Z,941.95
2018-03-17T09:10:08.971Z,941.86
2018-03-17T09:11:08.949Z,941.95
2018-03-17T09:12:08.928Z,941.96
2018-03-17T09:13:08.913Z,941.94
2018-03-17T09:14:08.886Z,941.94
2018-03-17T09:15:08.864Z,941.89
2018-03-17T09:16:08.847Z,941.96
2018-03-17T09:17:08.823Z,941.94
2018-03-17T09:18:08.804Z,941.87
2018-03-17T09:19:08.785Z,941.87
2018-03-17T09:20:08.763Z,941.95
2018-03-17T09:21:08.749Z,941.93
2018-03-17T09:22:08.722Z,941.91
2018-03-17T09:23:08.701Z,941.89
2018-03-17T09:24:08.679Z,941.89
2018-03-17T09:25:08.661Z,941.9
2018-03-17T09:26:08.640Z,941.85
2018-03-17T09:27:08.622Z,941.87
2018-03-17T09:28:08.598Z,941.85
2018-03-17T09:29:08.578Z,941.92
2018-03-17T09:30:08.558Z,941.85
2018-03-17T09:31:08.537Z,941.89
2018-03-17T09:32:08.517Z,941.92
2018-03-17T09:33:08.497Z,941.94
2018-03-17T09:34:08.475Z,941.87
2018-03-17T09:35:08.455Z,941.89
2018-03-17T09:36:08.434Z,941.9
2018-03-17T09:37:08.414Z,941.88
2018-03-17T09:38:08.394Z,941.9
2018-03-17T09:39:08.374Z,941.96
2018-03-17T09:40:08.354Z,941.89
2018-03-17T09:41:08.335Z,941.89
2018-03-17T09:42:08.311Z,941.92
2018-03-17T09:43:08.291Z,941.9
2018-03-17T09:44:08.274Z,941.91
2018-03-17T09:45:08.252Z,941.98
2018-03-17T09:46:08.236Z,941.93
2018-03-17T09:47:08.210Z,941.95
2018-03-17T09:48:08.241Z,941.89
2018-03-17T09:49:08.171Z,941.85
2018-03-17T09:50:08.149Z,941.93
2018-03-17T09:51:08.129Z,941.88
2018-03-17T09:52:08.111Z,941.87
2018-03-17T09:53:08.087Z,941.87
2018-03-17T09:54:08.069Z,941.87
2018-03-17T09:55:08.046Z,941.9
2018-03-17T09:56:08.026Z,941.94
2018-03-17T09:57:08.006Z,941.93
2018-03-17T09:58:07.986Z,941.95
2018-03-17T09:59:07.969Z,941.93
2018-03-17T10:00:07.946Z,941.91
2018-03-17T10:01:07.923Z,941.87
2018-03-17T10:02:07.906Z,941.88
2018-03-17T10:03:07.884Z,941.89
2018-03-17T10:04:07.863Z,941.9
2018-03-17T10:05:07.843Z,941.86
2018-03-17T10:06:07.825Z,941.87
2018-03-17T10:07:07.805Z,941.9
2018-03-17T10:08:07.783Z,941.9
2018-03-17T10:09:07.763Z,941.93
2018-03-17T10:10:07.744Z,941.9
2018-03-17T10:11:07.724Z,941.89
2018-03-17T10:12:07.703Z,941.9
2018-03-17T10:13:07.684Z,941.9
2018-03-17T10:14:07.664Z,941.91
2018-03-17T10:15:07.643Z,941.92
2018-03-17T10:16:07.624Z,941.92
2018-03-17T10:17:07.605Z,941.86
2018-03-17T10:18:07.585Z,941.85
2018-03-17T10:19:07.565Z,941.92
2018-03-17T10:20:07.544Z,941.91
2018-03-17T10:21:07.524Z,942.03
2018-03-17T10:22:07.507Z,941.94
2018-03-17T10:23:07.482Z,941.95
2018-03-17T10:24:07.463Z,941.88
2018-03-17T10:25:07.443Z,941.93
2018-03-17T10:26:07.427Z,941.97
2018-03-17T10:27:07.403Z,941.97
2018-03-17T10:28:07.386Z,941.93
2018-03-17T10:29:07.363Z,941.96
2018-03-17T10:30:07.344Z,941.91
2018-03-17T10:31:07.334Z,941.93
2018-03-17T10:32:07.303Z,941.9
2018-03-17T10:33:07.285Z,941.95
2018-03-17T10:34:07.286Z,941.96
2018-03-17T10:35:07.242Z,941.87
2018-03-17T10:36:07.224Z,941.9
2018-03-17T10:37:07.202Z,941.89
2018-03-17T10:38:07.183Z,941.96
2018-03-17T10:39:07.163Z,941.94
2018-03-17T10:40:07.144Z,941.9
2018-03-17T10:41:07.122Z,941.89
2018-03-17T10:42:07.104Z,941.94
2018-03-17T10:43:07.083Z,941.84
2018-03-17T10:44:07.064Z,941.81
2018-03-17T10:45:07.043Z,941.81
2018-03-17T10:46:07.038Z,941.8
2018-03-17T10:47:07.007Z,941.77
2018-03-17T10:48:06.985Z,941.72
2018-03-17T10:49:06.965Z,941.75
2018-03-17T10:50:06.948Z,941.79
2018-03-17T10:51:06.932Z,941.73
2018-03-17T10:52:06.906Z,941.75
2018-03-17T10:53:06.891Z,941.78
2018-03-17T10:54:06.868Z,941.74
2018-03-17T10:55:06.850Z,941.73
2018-03-17T10:56:06.827Z,941.74
2018-03-17T10:57:06.808Z,941.71
2018-03-17T10:58:06.790Z,941.74
2018-03-17T10:59:06.770Z,941.72
2018-03-17T11:00:06.766Z,941.7
2018-03-17T11:01:06.731Z,941.75
2018-03-17T11:02:06.716Z,941.75
2018-03-17T11:03:06.692Z,941.69
2018-03-17T11:04:06.674Z,941.7
2018-03-17T11:05:06.656Z,941.65
2018-03-17T11:06:06.701Z,941.66
2018-03-17T11:07:06.612Z,941.66
2018-03-17T11:08:06.593Z,941.67
2018-03-17T11:09:06.575Z,941.74
2018-03-17T11:10:06.555Z,941.65
2018-03-17T11:11:06.538Z,941.65
2018-03-17T11:12:06.516Z,941.71
2018-03-17T11:13:06.497Z,941.75
2018-03-17T11:14:06.476Z,941.68
2018-03-17T11:15:06.457Z,941.7
2018-03-17T11:16:06.438Z,941.7
2018-03-17T11:17:06.419Z,941.68
2018-03-17T11:18:06.399Z,941.67
2018-03-17T11:19:06.381Z,941.66
2018-03-17T11:20:06.360Z,941.69
2018-03-17T11:21:06.341Z,941.64
2018-03-17T11:22:06.322Z,941.61
2018-03-17T11:23:06.353Z,941.59
2018-03-17T11:24:06.283Z,941.65
2018-03-17T11:25:06.262Z,941.68
2018-03-17T11:26:06.248Z,941.6
2018-03-17T11:27:06.224Z,941.6
2018-03-17T11:28:06.204Z,941.62
2018-03-17T11:29:06.187Z,941.56
2018-03-17T11:30:06.167Z,941.6
2018-03-17T11:31:06.147Z,941.61
2018-03-17T11:32:06.127Z,941.58
2018-03-17T11:33:06.107Z,941.59
2018-03-17T11:34:06.088Z,941.55
2018-03-17T11:35:06.070Z,941.55
2018-03-17T11:36:06.049Z,941.57
2018-03-17T11:37:06.031Z,941.54
2018-03-17T11:38:06.010Z,941.61
2018-03-17T11:39:05.991Z,941.55
2018-03-17T11:40:05.973Z,941.53
2018-03-17T11:41:05.952Z,941.55
2018-03-17T11:42:05.933Z,941.51
2018-03-17T11:43:05.914Z,941.55
2018-03-17T11:44:05.894Z,941.54
2018-03-17T11:45:05.911Z,941.53
2018-03-17T11:46:05.860Z,941.51
2018-03-17T11:47:05.839Z,941.57
2018-03-17T11:48:05.817Z,941.49
2018-03-17T11:49:05.799Z,941.55
2018-03-17T11:50:05.777Z,941.55
2018-03-17T11:51:05.758Z,941.5
2018-03-17T11:52:05.739Z,941.51
2018-03-17T11:53:05.724Z,941.49
2018-03-17T11:54:05.699Z,941.49
2018-03-17T11:55:05.679Z,941.45
2018-03-17T11:56:05.661Z,941.52
2018-03-17T11:57:05.644Z,941.45
2018-03-17T11:58:05.625Z,941.42
2018-03-17T11:59:05.607Z,941.41
2018-03-17T12:00:05.584Z,941.47
2018-03-17T12:01:05.564Z,941.39
2018-03-17T12:02:05.546Z,941.47
2018-03-17T12:03:05.526Z,941.43
2018-03-17T12:04:05.508Z,941.46
2018-03-17T12:05:05.486Z,941.5
2018-03-17T12:06:05.474Z,941.5
2018-03-17T12:07:05.449Z,941.52
2018-03-17T12:08:05.430Z,941.51
2018-03-17T12:09:05.410Z,941.43
2018-03-17T12:10:05.447Z,941.5
2018-03-17T12:11:05.371Z,941.51
2018-03-17T12:12:05.350Z,941.5
2018-03-17T12:13:05.331Z,941.46
2018-03-17T12:14:05.311Z,941.48
2018-03-17T12:15:05.293Z,941.5
2018-03-17T12:16:05.272Z,941.47
2018-03-17T12:17:05.256Z,941.5
2018-03-17T12:18:05.237Z,941.5
2018-03-17T12:19:05.215Z,941.49
2018-03-17T12:20:05.196Z,941.51
2018-03-17T12:21:05.177Z,941.46
2018-03-17T12:22:05.157Z,941.56
2018-03-17T12:23:05.135Z,941.57
2018-03-17T12:24:05.120Z,941.55
2018-03-17T12:25:05.098Z,941.56
2018-03-17T12:26:05.080Z,941.54
2018-03-17T12:27:05.058Z,941.58
2018-03-17T12:28:05.037Z,941.54
2018-03-17T12:29:05.018Z,941.47
2018-03-17T12:30:04.998Z,941.56
2018-03-17T12:31:04.979Z,941.57